createdAt,value
2018-10-16T00:00:00.546Z,13.17
2018-10-16T00:01:10.518Z,13.21
2018-10-16T00:02:20.457Z,13.26
2018-10-16T00:03:30.409Z,13.09
2018-10-16T00:04:40.101Z,13.13
2018-10-16T00:05:50.090Z,13.23
2018-10-16T00:07:00.042Z,13.26
2018-10-16T00:08:09.995Z,13.2
2018-10-16T00:09:19.681Z,13.3
2018-10-16T00:10:29.626Z,13.33
2018-10-16T00:11:39.341Z,13.4
2018-10-16T00:12:49.312Z,13.33
2018-10-16T00:13:59.263Z,13.31
2018-10-16T00:15:09.225Z,13.33
2018-10-16T00:16:18.940Z,13.45
2018-10-16T00:17:28.888Z,13.4
2018-10-16T00:18:38.824Z,13.36
2018-10-16T00:19:48.528Z,13.37
2018-10-16T00:20:58.225Z,13.19
2018-10-16T00:22:07.406Z,13.2
2018-10-16T00:23:17.363Z,13.12
2018-10-16T00:24:27.314Z,13.06
2018-10-16T00:25:37.265Z,12.98
2018-10-16T00:26:47.212Z,12.94
2018-10-16T00:27:57.163Z,12.93
2018-10-16T00:29:07.117Z,12.93
2018-10-16T00:30:16.557Z,12.78
2018-10-16T00:31:26.520Z,12.76
2018-10-16T00:32:36.692Z,12.75
2018-10-16T00:33:46.565Z,12.75
2018-10-16T00:34:56.515Z,12.81
2018-10-16T00:36:05.952Z,12.78
2018-10-16T00:37:15.647Z,12.72
2018-10-16T00:38:25.600Z,12.65
2018-10-16T00:39:35.299Z,12.58
2018-10-16T00:40:45.244Z,12.54
2018-10-16T00:41:54.933Z,12.51
2018-10-16T00:43:04.640Z,12.5
2018-10-16T00:44:14.596Z,12.47
2018-10-16T00:45:24.319Z,12.47
2018-10-16T00:46:34.271Z,12.54
2018-10-16T00:47:44.231Z,12.44
2018-10-16T00:48:53.935Z,12.39
2018-10-16T00:50:03.630Z,12.44
2018-10-16T00:51:13.338Z,12.54
2018-10-16T00:52:23.306Z,12.53
2018-10-16T00:53:33.261Z,12.5
2018-10-16T00:54:42.951Z,12.5
2018-10-16T00:55:52.731Z,12.5
2018-10-16T00:57:02.748Z,12.55
2018-10-16T00:58:12.701Z,12.48
2018-10-16T00:59:22.657Z,12.51
2018-10-16T01:00:32.623Z,12.51
2018-10-16T01:01:42.315Z,12.53
2018-10-16T01:02:51.757Z,12.53
2018-10-16T01:04:01.705Z,12.5
2018-10-16T01:05:11.655Z,12.4
2018-10-16T01:06:21.623Z,12.32
2018-10-16T01:07:31.317Z,12.36
2018-10-16T01:08:41.258Z,12.33
2018-10-16T01:09:51.209Z,12.3
2018-10-16T01:11:01.177Z,12.26
2018-10-16T01:12:10.870Z,12.29
2018-10-16T01:13:20.989Z,12.28
2018-10-16T01:14:30.959Z,12.18
2018-10-16T01:15:40.924Z,12.11
2018-10-16T01:16:50.872Z,12.17
2018-10-16T01:18:00.548Z,12.17
2018-10-16T01:19:10.487Z,12.05
2018-10-16T01:20:20.187Z,12
2018-10-16T01:21:29.862Z,12.02
2018-10-16T01:22:39.827Z,12
2018-10-16T01:23:49.529Z,11.99
2018-10-16T01:24:59.242Z,11.91
2018-10-16T01:26:09.206Z,12.03
2018-10-16T01:27:19.155Z,11.97
2018-10-16T01:28:28.847Z,12.02
2018-10-16T01:29:38.534Z,11.99
2018-10-16T01:30:47.967Z,11.96
2018-10-16T01:31:57.915Z,12.1
2018-10-16T01:33:07.860Z,12.05
2018-10-16T01:34:17.305Z,12.14
2018-10-16T01:35:27.280Z,12.25
2018-10-16T01:36:36.974Z,12.28
2018-10-16T01:37:46.677Z,12.3
2018-10-16T01:38:56.641Z,12.36
2018-10-16T01:40:06.589Z,12.35
2018-10-16T01:41:16.554Z,12.35
2018-10-16T01:42:26.503Z,12.26
2018-10-16T01:43:36.460Z,12.26
2018-10-16T01:44:46.165Z,12.17
2018-10-16T01:45:56.126Z,12.14
2018-10-16T01:47:05.811Z,12.08
2018-10-16T01:48:15.766Z,12.03
2018-10-16T01:49:25.727Z,11.96
2018-10-16T01:50:35.426Z,11.95
2018-10-16T01:51:45.380Z,11.83
2018-10-16T01:52:55.311Z,11.74
2018-10-16T01:54:05.265Z,11.81
2018-10-16T01:55:15.197Z,11.81
2018-10-16T01:56:24.891Z,11.76
2018-10-16T01:57:34.839Z,11.8
2018-10-16T01:58:44.517Z,11.73
2018-10-16T01:59:54.466Z,11.71
2018-10-16T02:01:04.420Z,11.55
2018-10-16T02:02:14.390Z,11.59
2018-10-16T02:03:24.571Z,11.65
2018-10-16T02:04:34.520Z,11.59
2018-10-16T02:05:44.512Z,11.44
2018-10-16T02:06:54.508Z,11.45
2018-10-16T02:08:03.680Z,11.44
2018-10-16T02:09:13.363Z,11.38
2018-10-16T02:10:23.069Z,11.37
2018-10-16T02:11:33.032Z,11.31
2018-10-16T02:12:42.976Z,11.34
2018-10-16T02:13:52.923Z,11.2
2018-10-16T02:15:02.882Z,11.27
2018-10-16T02:16:12.831Z,11.31
2018-10-16T02:17:22.776Z,11.41
2018-10-16T02:18:32.719Z,11.51
2018-10-16T02:19:42.160Z,11.49
2018-10-16T02:20:52.118Z,11.58
2018-10-16T02:22:02.059Z,11.63
2018-10-16T02:23:12.001Z,11.68
2018-10-16T02:24:21.699Z,11.74
2018-10-16T02:25:30.868Z,11.7
2018-10-16T02:26:40.822Z,11.7
2018-10-16T02:27:50.516Z,11.71
2018-10-16T02:29:00.194Z,11.68
2018-10-16T02:30:09.888Z,11.63
2018-10-16T02:31:19.833Z,11.62
2018-10-16T02:32:29.281Z,11.53
2018-10-16T02:33:39.250Z,11.59
2018-10-16T02:34:49.215Z,11.48
2018-10-16T02:35:59.168Z,11.48
2018-10-16T02:37:09.118Z,11.44
2018-10-16T02:38:19.090Z,11.34
2018-10-16T02:39:28.527Z,11.37
2018-10-16T02:40:38.489Z,11.34
2018-10-16T02:41:48.189Z,11.31
2018-10-16T02:42:58.137Z,11.22
2018-10-16T02:44:08.082Z,11.26
2018-10-16T02:45:17.514Z,11.25
2018-10-16T02:46:27.463Z,11.19
2018-10-16T02:47:37.417Z,11.22
2018-10-16T02:48:47.356Z,11.25
2018-10-16T02:49:57.341Z,11.27
2018-10-16T02:51:07.291Z,11.22
2018-10-16T02:52:17.270Z,11.3
2018-10-16T02:53:26.714Z,11.3
2018-10-16T02:54:36.405Z,11.3
2018-10-16T02:55:46.108Z,11.34
2018-10-16T02:56:56.060Z,11.33
2018-10-16T02:58:06.026Z,11.34
2018-10-16T02:59:16.030Z,11.41
2018-10-16T03:00:25.725Z,11.34
2018-10-16T03:01:35.679Z,11.44
2018-10-16T03:02:45.654Z,11.41
2018-10-16T03:03:55.598Z,11.44
2018-10-16T03:05:05.544Z,11.48
2018-10-16T03:06:15.510Z,11.41
2018-10-16T03:07:25.469Z,11.34
2018-10-16T03:08:35.428Z,11.26
2018-10-16T03:09:45.426Z,11.25
2018-10-16T03:10:55.388Z,11.3
2018-10-16T03:12:05.078Z,11.2
2018-10-16T03:13:15.015Z,11.23
2018-10-16T03:14:24.462Z,11.25
2018-10-16T03:15:34.429Z,11.19
2018-10-16T03:16:44.134Z,11.23
2018-10-16T03:17:54.087Z,11.16
2018-10-16T03:19:03.832Z,11.26
2018-10-16T03:20:13.791Z,11.19
2018-10-16T03:21:23.624Z,11.19
2018-10-16T03:22:33.591Z,11.2
2018-10-16T03:23:43.543Z,11.13
2018-10-16T03:24:52.974Z,11.07
2018-10-16T03:26:02.931Z,11.12
2018-10-16T03:27:12.878Z,11.02
2018-10-16T03:28:22.564Z,11.07
2018-10-16T03:29:32.512Z,11.05
2018-10-16T03:30:41.958Z,11.07
2018-10-16T03:31:51.679Z,11.1
2018-10-16T03:33:01.637Z,11.02
2018-10-16T03:34:11.583Z,11.05
2018-10-16T03:35:21.533Z,11.1
2018-10-16T03:36:31.230Z,11.16
2018-10-16T03:37:41.176Z,11.16
2018-10-16T03:38:50.644Z,11.22
2018-10-16T03:40:00.599Z,11.27
2018-10-16T03:41:10.045Z,11.25
2018-10-16T03:42:19.999Z,11.3
2018-10-16T03:43:29.961Z,11.23
2018-10-16T03:44:39.916Z,11.33
2018-10-16T03:45:49.610Z,11.23
2018-10-16T03:46:59.556Z,11.1
2018-10-16T03:48:09.522Z,11.13
2018-10-16T03:49:19.488Z,11.01
2018-10-16T03:50:29.189Z,11.08
2018-10-16T03:51:38.932Z,11.02
2018-10-16T03:52:48.927Z,10.95
2018-10-16T03:53:58.886Z,10.98
2018-10-16T03:55:08.829Z,10.94
2018-10-16T03:56:18.799Z,10.94
2018-10-16T03:57:28.800Z,10.92
2018-10-16T03:58:38.804Z,10.9
2018-10-16T03:59:48.505Z,10.86
2018-10-16T04:00:58.463Z,10.9
2018-10-16T04:02:08.431Z,10.9
2018-10-16T04:03:18.129Z,10.95
2018-10-16T04:04:27.831Z,11.02
2018-10-16T04:05:37.780Z,11.04
2018-10-16T04:06:48.050Z,10.98
2018-10-16T04:07:58.258Z,10.98
2018-10-16T04:09:07.959Z,10.76
2018-10-16T04:10:17.915Z,10.71
2018-10-16T04:11:27.859Z,10.83
2018-10-16T04:12:37.815Z,10.71
2018-10-16T04:13:47.568Z,10.65
2018-10-16T04:14:57.709Z,10.65
2018-10-16T04:16:07.663Z,10.58
2018-10-16T04:17:17.617Z,10.61
2018-10-16T04:18:27.554Z,10.55
2018-10-16T04:19:37.502Z,10.57
2018-10-16T04:20:47.452Z,10.59
2018-10-16T04:21:57.423Z,10.61
2018-10-16T04:23:07.127Z,10.51
2018-10-16T04:24:17.088Z,10.62
2018-10-16T04:25:27.027Z,10.59
2018-10-16T04:26:36.468Z,10.59
2018-10-16T04:27:46.417Z,10.61
2018-10-16T04:28:56.113Z,10.58
2018-10-16T04:30:06.157Z,10.49
2018-10-16T04:31:15.844Z,10.48
2018-10-16T04:32:25.531Z,10.55
2018-10-16T04:33:35.485Z,10.49
2018-10-16T04:34:45.429Z,10.45
2018-10-16T04:35:54.841Z,10.42
2018-10-16T04:37:04.801Z,10.42
2018-10-16T04:38:14.755Z,10.31
2018-10-16T04:39:24.710Z,10.38
2018-10-16T04:40:34.659Z,10.28
2018-10-16T04:41:45.070Z,10.25
2018-10-16T04:42:54.871Z,10.1
2018-10-16T04:44:04.827Z,10
2018-10-16T04:45:14.786Z,10.03
2018-10-16T04:46:24.782Z,10
2018-10-16T04:47:34.484Z,9.92
2018-10-16T04:48:44.218Z,9.87
2018-10-16T04:49:54.166Z,9.87
2018-10-16T04:51:03.838Z,9.82
2018-10-16T04:52:13.354Z,9.82
2018-10-16T04:53:23.056Z,9.84
2018-10-16T04:54:33.039Z,9.81
2018-10-16T04:55:42.996Z,9.8
2018-10-16T04:56:52.690Z,9.81
2018-10-16T04:58:02.392Z,9.87
2018-10-16T04:59:12.094Z,9.82
2018-10-16T05:00:22.036Z,9.84
2018-10-16T05:01:32.057Z,9.81
2018-10-16T05:02:42.030Z,9.81
2018-10-16T05:03:51.722Z,9.84
2018-10-16T05:05:01.573Z,9.85
2018-10-16T05:06:11.551Z,9.91
2018-10-16T05:07:21.512Z,9.81
2018-10-16T05:08:31.478Z,9.82
2018-10-16T05:09:41.174Z,9.84
2018-10-16T05:10:50.873Z,9.91
2018-10-16T05:12:00.825Z,9.8
2018-10-16T05:13:10.658Z,9.84
2018-10-16T05:14:20.666Z,9.84
2018-10-16T05:15:30.610Z,9.87
2018-10-16T05:16:40.314Z,9.85
2018-10-16T05:17:50.281Z,9.92
2018-10-16T05:19:00.428Z,9.87
2018-10-16T05:20:11.171Z,9.94
2018-10-16T05:21:21.126Z,9.94
2018-10-16T05:22:30.827Z,9.94
2018-10-16T05:23:40.784Z,9.91
2018-10-16T05:24:50.756Z,9.88
2018-10-16T05:26:00.481Z,9.84
2018-10-16T05:27:10.570Z,9.8
2018-10-16T05:28:20.534Z,9.81
2018-10-16T05:29:30.496Z,9.76
2018-10-16T05:30:40.199Z,9.73
2018-10-16T05:31:50.149Z,9.72
2018-10-16T05:32:59.845Z,9.73
2018-10-16T05:34:09.560Z,9.81
2018-10-16T05:35:19.532Z,9.72
2018-10-16T05:36:29.471Z,9.72
2018-10-16T05:37:39.168Z,9.73
2018-10-16T05:38:49.135Z,9.69
2018-10-16T05:39:59.091Z,9.73
2018-10-16T05:41:09.031Z,9.7
2018-10-16T05:42:18.727Z,9.69
2018-10-16T05:43:28.426Z,9.8
2018-10-16T05:44:38.361Z,9.81
2018-10-16T05:45:47.806Z,9.8
2018-10-16T05:46:57.494Z,9.85
2018-10-16T05:48:07.460Z,9.88
2018-10-16T05:49:17.405Z,9.95
2018-10-16T05:50:27.352Z,10.02
2018-10-16T05:51:37.048Z,10.07
2018-10-16T05:52:46.765Z,10.12
2018-10-16T05:53:56.862Z,10.09
2018-10-16T05:55:06.857Z,10.15
2018-10-16T05:56:16.282Z,10.12
2018-10-16T05:57:26.241Z,10.2
2018-10-16T05:58:35.431Z,10.24
2018-10-16T05:59:45.402Z,10.28
2018-10-16T06:00:55.392Z,10.23
2018-10-16T06:02:05.338Z,10.2
2018-10-16T06:03:15.034Z,10.25
2018-10-16T06:04:25.021Z,10.24
2018-10-16T06:05:35.300Z,10.28
2018-10-16T06:06:45.562Z,10.28
2018-10-16T06:07:55.256Z,10.24
2018-10-16T06:09:04.952Z,10.21
2018-10-16T06:10:14.978Z,10.2
2018-10-16T06:11:24.947Z,10.2
2018-10-16T06:12:34.933Z,10.3
2018-10-16T06:13:44.657Z,10.27
2018-10-16T06:14:54.618Z,10.24
2018-10-16T06:16:04.311Z,10.3
2018-10-16T06:17:13.999Z,10.34
2018-10-16T06:18:23.968Z,10.28
2018-10-16T06:19:33.929Z,10.34
2018-10-16T06:20:43.641Z,10.34
2018-10-16T06:21:53.610Z,10.39
2018-10-16T06:23:03.565Z,10.39
2018-10-16T06:24:13.564Z,10.36
2018-10-16T06:25:23.677Z,10.36
2018-10-16T06:26:33.562Z,10.38
2018-10-16T06:27:43.658Z,10.36
2018-10-16T06:28:53.917Z,10.34
2018-10-16T06:30:03.931Z,10.33
2018-10-16T06:31:13.697Z,10.38
2018-10-16T06:32:23.387Z,10.38
2018-10-16T06:33:33.544Z,10.38
2018-10-16T06:34:42.973Z,10.51
2018-10-16T06:35:52.151Z,10.55
2018-10-16T06:37:02.107Z,10.55
2018-10-16T06:38:12.079Z,10.65
2018-10-16T06:39:22.035Z,10.61
2018-10-16T06:40:32.194Z,10.68
2018-10-16T06:41:42.683Z,10.79
2018-10-16T06:42:53.076Z,10.75
2018-10-16T06:44:02.981Z,10.86
2018-10-16T06:45:12.948Z,10.82
2018-10-16T06:46:23.036Z,10.87
2018-10-16T06:47:33.770Z,10.95
2018-10-16T06:48:45.417Z,10.94
2018-10-16T06:49:56.450Z,10.98
2018-10-16T06:51:06.399Z,10.98
2018-10-16T06:52:16.369Z,11.04
2018-10-16T06:53:26.791Z,11.04
2018-10-16T06:54:36.928Z,11.04
2018-10-16T06:55:47.109Z,11.15
2018-10-16T06:56:57.061Z,11.13
2018-10-16T06:58:07.020Z,11.15
2018-10-16T06:59:17.003Z,11.16
2018-10-16T07:00:27.269Z,11.2
2018-10-16T07:01:37.223Z,11.19
2018-10-16T07:02:46.909Z,11.22
2018-10-16T07:03:56.350Z,11.3
2018-10-16T07:05:06.325Z,11.23
2018-10-16T07:06:15.775Z,11.38
2018-10-16T07:07:25.806Z,11.41
2018-10-16T07:08:36.039Z,11.44
2018-10-16T07:09:45.981Z,11.45
2018-10-16T07:10:55.696Z,11.51
2018-10-16T07:12:05.143Z,11.53
2018-10-16T07:13:15.127Z,11.6
2018-10-16T07:14:25.061Z,11.62
2018-10-16T07:15:34.792Z,11.68
2018-10-16T07:16:44.768Z,11.67
2018-10-16T07:17:54.740Z,11.77
2018-10-16T07:19:04.756Z,11.8
2018-10-16T07:20:14.708Z,11.93
2018-10-16T07:21:24.909Z,11.95
2018-10-16T07:22:34.972Z,11.97
2018-10-16T07:23:45.043Z,12.07
2018-10-16T07:24:54.823Z,11.97
2018-10-16T07:26:04.773Z,12.02
2018-10-16T07:27:14.731Z,12.12
2018-10-16T07:28:24.448Z,12.12
2018-10-16T07:29:34.397Z,12.14
2018-10-16T07:30:44.088Z,12.28
2018-10-16T07:31:54.286Z,12.25
2018-10-16T07:33:04.005Z,12.43
2018-10-16T07:34:13.715Z,12.3
2018-10-16T07:35:23.420Z,12.5
2018-10-16T07:36:33.396Z,12.53
2018-10-16T07:37:43.758Z,12.57
2018-10-16T07:38:54.135Z,12.69
2018-10-16T07:40:04.223Z,12.9
2018-10-16T07:41:14.225Z,12.86
2018-10-16T07:42:24.335Z,12.94
2018-10-16T07:43:33.769Z,12.91
2018-10-16T07:44:43.469Z,13.19
2018-10-16T07:45:53.183Z,13.2
2018-10-16T07:47:02.896Z,13.23
2018-10-16T07:48:13.044Z,13.37
2018-10-16T07:49:23.090Z,13.43
2018-10-16T07:50:33.068Z,13.54
2018-10-16T07:51:43.056Z,13.71
2018-10-16T07:52:52.767Z,13.93
2018-10-16T07:54:02.571Z,13.95
2018-10-16T07:55:12.566Z,14.15
2018-10-16T07:56:22.287Z,14.3
2018-10-16T07:57:32.015Z,14.62
2018-10-16T07:58:41.738Z,14.81
2018-10-16T07:59:51.725Z,15.02
2018-10-16T08:01:01.716Z,15.17
2018-10-16T08:02:11.691Z,15.27
2018-10-16T08:03:21.701Z,15.45
2018-10-16T08:04:31.693Z,15.63
2018-10-16T08:05:41.667Z,15.59
2018-10-16T08:06:51.645Z,15.73
2018-10-16T08:08:01.875Z,15.84
2018-10-16T08:09:11.847Z,15.9
2018-10-16T08:10:21.833Z,15.87
2018-10-16T08:11:32.255Z,15.92
2018-10-16T08:12:42.417Z,16
2018-10-16T08:13:52.134Z,16.1
2018-10-16T08:15:02.092Z,16.21
2018-10-16T08:16:11.537Z,16.12
2018-10-16T08:17:21.989Z,16.12
2018-10-16T08:18:31.859Z,16.21
2018-10-16T08:19:41.591Z,16.24
2018-10-16T08:20:51.594Z,16.21
2018-10-16T08:22:01.590Z,16.34
2018-10-16T08:23:11.308Z,16.41
2018-10-16T08:24:21.289Z,16.44
2018-10-16T08:25:30.982Z,16.68
2018-10-16T08:26:40.732Z,16.89
2018-10-16T08:27:50.526Z,17.02
2018-10-16T08:29:00.266Z,17.09
2018-10-16T08:30:10.640Z,16.92
2018-10-16T08:31:20.325Z,16.89
2018-10-16T08:32:30.291Z,16.84
2018-10-16T08:33:40.270Z,17.09
2018-10-16T08:34:50.259Z,17.19
2018-10-16T08:35:59.490Z,17.2
2018-10-16T08:37:09.755Z,17.14
2018-10-16T08:38:19.746Z,17.3
2018-10-16T08:39:29.476Z,17.34
2018-10-16T08:40:39.111Z,17.3
2018-10-16T08:41:48.815Z,17.38
2018-10-16T08:42:59.159Z,17.3
2018-10-16T08:44:08.878Z,17.31
2018-10-16T08:45:18.619Z,17.23
2018-10-16T08:46:28.372Z,17.14
2018-10-16T08:47:38.310Z,17.09
2018-10-16T08:48:48.432Z,17.2
2018-10-16T08:49:58.412Z,17.3
2018-10-16T08:51:08.387Z,17.42
2018-10-16T08:52:18.361Z,17.41
2018-10-16T08:53:28.348Z,17.44
2018-10-16T08:54:38.372Z,17.35
2018-10-16T08:55:48.353Z,17.37
2018-10-16T08:56:58.338Z,17.23
2018-10-16T08:58:07.836Z,17.41
2018-10-16T08:59:17.569Z,17.47
2018-10-16T09:00:27.314Z,17.49
2018-10-16T09:01:37.303Z,17.6
2018-10-16T09:02:47.033Z,17.87
2018-10-16T09:03:57.004Z,18
2018-10-16T09:05:06.734Z,18.26
2018-10-16T09:06:16.699Z,18.42
2018-10-16T09:07:26.421Z,18.63
2018-10-16T09:08:36.135Z,18.91
2018-10-16T09:09:46.156Z,18.97
2018-10-16T09:10:56.166Z,18.85
2018-10-16T09:12:06.144Z,18.83
2018-10-16T09:13:16.373Z,19.08
2018-10-16T09:14:26.524Z,19.11
2018-10-16T09:15:36.806Z,19.07
2018-10-16T09:16:46.525Z,19.07
2018-10-16T09:17:55.961Z,19.07
2018-10-16T09:19:05.920Z,19.19
2018-10-16T09:20:15.908Z,19.27
2018-10-16T09:21:25.837Z,19.41
2018-10-16T09:22:35.799Z,19.55
2018-10-16T09:23:45.508Z,19.64
2018-10-16T09:24:55.618Z,19.74
2018-10-16T09:26:05.825Z,19.71
2018-10-16T09:27:15.806Z,19.55
2018-10-16T09:28:25.775Z,19.59
2018-10-16T09:29:35.483Z,19.52
2018-10-16T09:30:45.745Z,19.71
2018-10-16T09:31:56.037Z,19.67
2018-10-16T09:33:06.032Z,19.82
2018-10-16T09:34:16.130Z,19.66
2018-10-16T09:35:25.897Z,19.57
2018-10-16T09:36:35.603Z,19.56
2018-10-16T09:37:45.969Z,19.72
2018-10-16T09:38:56.495Z,19.92
2018-10-16T09:40:06.199Z,20.15
2018-10-16T09:41:15.922Z,20.39
2018-10-16T09:42:25.902Z,20.21
2018-10-16T09:43:35.613Z,20.32
2018-10-16T09:44:45.314Z,20.5
2018-10-16T09:45:55.282Z,20.6
2018-10-16T09:47:05.262Z,20.88
2018-10-16T09:48:15.466Z,21.03
2018-10-16T09:49:25.197Z,21.29
2018-10-16T09:50:35.255Z,21.47
2018-10-16T09:51:45.267Z,21.35
2018-10-16T09:52:54.462Z,21.3
2018-10-16T09:54:04.178Z,21.25
2018-10-16T09:55:14.163Z,21.3
2018-10-16T09:56:24.127Z,21.28
2018-10-16T09:57:34.095Z,21.28
2018-10-16T09:58:43.816Z,21.15
2018-10-16T09:59:53.526Z,21.14
2018-10-16T10:01:04.043Z,20.92
2018-10-16T10:02:14.039Z,21.03
2018-10-16T10:03:24.014Z,21.11
2018-10-16T10:04:33.742Z,21.14
2018-10-16T10:05:43.704Z,21.1
2018-10-16T10:06:53.683Z,21.15
2018-10-16T10:08:03.663Z,21.05
2018-10-16T10:09:13.095Z,21.03
2018-10-16T10:10:22.765Z,21.07
2018-10-16T10:11:32.181Z,20.89
2018-10-16T10:12:41.867Z,20.9
2018-10-16T10:13:51.779Z,21.03
2018-10-16T10:15:01.442Z,20.98
2018-10-16T10:16:11.111Z,21.14
2018-10-16T10:17:20.800Z,21.2
2018-10-16T10:18:30.206Z,21.33
2018-10-16T10:19:39.871Z,21.25
2018-10-16T10:20:49.312Z,21.25
2018-10-16T10:21:59.282Z,21.33
2018-10-16T10:23:09.227Z,21.4
2018-10-16T10:24:19.042Z,21.65
2018-10-16T10:25:28.803Z,21.84
2018-10-16T10:26:38.200Z,21.78
2018-10-16T10:27:47.621Z,21.91
2018-10-16T10:28:56.815Z,22.06
2018-10-16T10:30:07.004Z,22.22
2018-10-16T10:31:16.427Z,22.51
2018-10-16T10:32:26.344Z,22.71
2018-10-16T10:33:36.029Z,22.8
2018-10-16T10:34:45.968Z,22.88
2018-10-16T10:35:55.893Z,22.77
2018-10-16T10:37:05.875Z,22.73
2018-10-16T10:38:15.862Z,22.71
2018-10-16T10:39:25.576Z,22.52
2018-10-16T10:40:35.785Z,22.31
2018-10-16T10:41:45.858Z,22.3
2018-10-16T10:42:55.563Z,22.38
2018-10-16T10:44:05.546Z,22.25
2018-10-16T10:45:15.275Z,22.25
2018-10-16T10:46:25.299Z,22.4
2018-10-16T10:47:34.998Z,22.33
2018-10-16T10:48:44.715Z,22.15
2018-10-16T10:49:54.926Z,21.81
2018-10-16T10:51:06.159Z,21.99
2018-10-16T10:52:17.167Z,22.22
2018-10-16T10:53:26.899Z,22.53
2018-10-16T10:54:36.611Z,22.84
2018-10-16T10:55:46.578Z,22.84
2018-10-16T10:56:56.331Z,22.99
2018-10-16T10:58:06.843Z,23.47
2018-10-16T10:59:16.723Z,23.42
2018-10-16T11:00:26.746Z,23.25
2018-10-16T11:01:36.717Z,23.14
2018-10-16T11:02:46.704Z,22.83
2018-10-16T11:03:56.675Z,22.83
2018-10-16T11:05:06.646Z,23.14
2018-10-16T11:06:16.615Z,23.48
2018-10-16T11:07:26.598Z,23.89
2018-10-16T11:08:36.302Z,24.55
2018-10-16T11:09:46.273Z,25.24
2018-10-16T11:10:55.720Z,25.68
2018-10-16T11:12:05.433Z,25.76
2018-10-16T11:13:15.118Z,25.25
2018-10-16T11:14:24.818Z,25.48
2018-10-16T11:15:35.023Z,26.11
2018-10-16T11:16:44.483Z,26.37
2018-10-16T11:17:54.460Z,26.46
2018-10-16T11:19:04.431Z,26.66
2018-10-16T11:20:14.421Z,26.45
2018-10-16T11:21:24.138Z,26.19
2018-10-16T11:22:34.109Z,26.31
2018-10-16T11:23:44.100Z,26.3
2018-10-16T11:24:54.061Z,26.37
2018-10-16T11:26:04.052Z,25.86
2018-10-16T11:27:14.601Z,25.89
2018-10-16T11:28:24.671Z,25.99
2018-10-16T11:29:34.616Z,26.34
2018-10-16T11:30:44.544Z,27
2018-10-16T11:31:54.522Z,27.4
2018-10-16T11:33:04.451Z,27.73
2018-10-16T11:34:14.803Z,28.1
2018-10-16T11:35:24.517Z,28.27
2018-10-16T11:36:34.482Z,28.67
2018-10-16T11:37:44.480Z,29.21
2018-10-16T11:38:54.483Z,29.25
2018-10-16T11:40:04.703Z,29.57
2018-10-16T11:41:14.422Z,29.76
2018-10-16T11:42:23.882Z,29.77
2018-10-16T11:43:33.858Z,30.13
2018-10-16T11:44:43.849Z,30.59
2018-10-16T11:45:54.125Z,31.07
2018-10-16T11:47:04.131Z,31.35
2018-10-16T11:48:14.155Z,31.78
2018-10-16T11:49:24.128Z,31.51
2018-10-16T11:50:34.109Z,30.59
2018-10-16T11:51:43.570Z,29.83
2018-10-16T11:52:53.567Z,29.46
2018-10-16T11:54:03.539Z,29.2
2018-10-16T11:55:13.531Z,29.09
2018-10-16T11:56:23.496Z,28.57
2018-10-16T11:57:33.494Z,28.12
2018-10-16T11:58:43.476Z,27.72
2018-10-16T11:59:53.471Z,27.48
2018-10-16T12:01:03.466Z,27.35
2018-10-16T12:02:14.018Z,27.15
2018-10-16T12:03:24.341Z,26.83
2018-10-16T12:04:34.037Z,27
2018-10-16T12:05:43.759Z,27.23
2018-10-16T12:06:53.774Z,27.4
2018-10-16T12:08:04.273Z,27.41
2018-10-16T12:09:14.525Z,27.41
2018-10-16T12:10:24.515Z,27.55
2018-10-16T12:11:34.554Z,27.6
2018-10-16T12:12:44.569Z,27.58
2018-10-16T12:13:54.641Z,27.57
2018-10-16T12:15:04.727Z,27.58
2018-10-16T12:16:14.716Z,27.13
2018-10-16T12:17:23.908Z,27.03
2018-10-16T12:18:33.878Z,26.88
2018-10-16T12:19:44.040Z,26.76
2018-10-16T12:20:53.830Z,26.63
2018-10-16T12:22:03.672Z,26.51
2018-10-16T12:23:13.641Z,26.44
2018-10-16T12:24:23.333Z,26.36
2018-10-16T12:25:33.245Z,26.36
2018-10-16T12:26:42.703Z,26.34
2018-10-16T12:27:52.436Z,26.41
2018-10-16T12:29:02.504Z,26.34
2018-10-16T12:30:13.017Z,26.33
2018-10-16T12:31:22.943Z,26.3
2018-10-16T12:32:32.988Z,26.18
2018-10-16T12:33:42.983Z,25.88
2018-10-16T12:34:52.754Z,25.68
2018-10-16T12:36:02.743Z,25.39
2018-10-16T12:37:12.520Z,25.4
2018-10-16T12:38:22.850Z,25.29
2018-10-16T12:39:33.073Z,25.18
2018-10-16T12:40:42.849Z,25.15
2018-10-16T12:41:53.000Z,25.15
2018-10-16T12:43:03.006Z,25.22
2018-10-16T12:44:13.109Z,25.15
2018-10-16T12:45:23.073Z,25.04
2018-10-16T12:46:33.058Z,25.06
2018-10-16T12:47:42.527Z,25.16
2018-10-16T12:48:52.502Z,25.06
2018-10-16T12:50:02.485Z,25.15
2018-10-16T12:51:13.095Z,25.22
2018-10-16T12:52:23.488Z,25.4
2018-10-16T12:53:33.216Z,25.31
2018-10-16T12:54:43.205Z,25.31
2018-10-16T12:55:53.233Z,25.4
2018-10-16T12:57:03.728Z,25.59
2018-10-16T12:58:13.809Z,25.83
2018-10-16T12:59:23.791Z,25.92
2018-10-16T13:00:33.279Z,25.8
2018-10-16T13:01:42.990Z,25.66
2018-10-16T13:02:53.250Z,25.4
2018-10-16T13:04:03.142Z,25.06
2018-10-16T13:05:13.073Z,24.92
2018-10-16T13:06:23.256Z,24.68
2018-10-16T13:07:33.217Z,24.5
2018-10-16T13:08:43.191Z,24.19
2018-10-16T13:09:52.911Z,24.06
2018-10-16T13:11:02.772Z,24.21
2018-10-16T13:12:12.745Z,24.43
2018-10-16T13:13:22.712Z,24.71
2018-10-16T13:14:32.433Z,25
2018-10-16T13:15:42.371Z,25.26
2018-10-16T13:16:53.130Z,25.4
2018-10-16T13:18:03.427Z,25.39
2018-10-16T13:19:13.222Z,25.25
2018-10-16T13:20:23.453Z,25.07
2018-10-16T13:21:33.158Z,24.75
2018-10-16T13:22:43.120Z,24.34
2018-10-16T13:23:52.997Z,24.24
2018-10-16T13:25:03.117Z,24
2018-10-16T13:26:13.471Z,24.03
2018-10-16T13:27:23.469Z,23.99
2018-10-16T13:28:33.457Z,24.18
2018-10-16T13:29:43.971Z,24.18
2018-10-16T13:30:54.173Z,24.25
2018-10-16T13:32:04.412Z,24.36
2018-10-16T13:33:14.733Z,24.4
2018-10-16T13:34:24.710Z,24.44
2018-10-16T13:35:34.673Z,24.56
2018-10-16T13:36:44.788Z,24.21
2018-10-16T13:37:54.660Z,23.99
2018-10-16T13:39:04.388Z,23.86
2018-10-16T13:40:13.992Z,23.64
2018-10-16T13:41:24.165Z,23.55
2018-10-16T13:42:34.598Z,23.37
2018-10-16T13:43:44.263Z,23.34
2018-10-16T13:44:53.950Z,23.29
2018-10-16T13:46:04.191Z,23.25
2018-10-16T13:47:14.437Z,23.36
2018-10-16T13:48:24.159Z,23.58
2018-10-16T13:49:34.143Z,23.79
2018-10-16T13:50:43.598Z,23.96
2018-10-16T13:51:53.677Z,23.84
2018-10-16T13:53:03.455Z,23.79
2018-10-16T13:54:13.172Z,23.89
2018-10-16T13:55:23.141Z,23.86
2018-10-16T13:56:33.133Z,23.73
2018-10-16T13:57:42.907Z,23.58
2018-10-16T13:58:52.884Z,23.64
2018-10-16T14:00:02.860Z,23.51
2018-10-16T14:01:12.830Z,23.51
2018-10-16T14:02:22.553Z,23.62
2018-10-16T14:03:32.526Z,23.69
2018-10-16T14:04:42.360Z,23.82
2018-10-16T14:05:52.255Z,23.77
2018-10-16T14:07:02.216Z,23.81
2018-10-16T14:08:12.454Z,23.84
2018-10-16T14:09:22.752Z,23.74
2018-10-16T14:10:32.728Z,23.74
2018-10-16T14:11:42.693Z,23.64
2018-10-16T14:12:52.386Z,23.63
2018-10-16T14:14:02.325Z,23.66
2018-10-16T14:15:12.299Z,23.82
2018-10-16T14:16:22.425Z,23.86
2018-10-16T14:17:32.398Z,23.89
2018-10-16T14:18:42.113Z,23.71
2018-10-16T14:19:51.852Z,23.54
2018-10-16T14:21:02.013Z,23.33
2018-10-16T14:22:12.379Z,23.42
2018-10-16T14:23:22.566Z,23.39
2018-10-16T14:24:32.530Z,23.48
2018-10-16T14:25:42.253Z,23.66
2018-10-16T14:26:52.283Z,23.67
2018-10-16T14:28:02.364Z,23.79
2018-10-16T14:29:12.565Z,23.73
2018-10-16T14:30:22.517Z,23.56
2018-10-16T14:31:31.971Z,23.51
2018-10-16T14:32:42.008Z,23.44
2018-10-16T14:33:52.277Z,23.4
2018-10-16T14:35:02.907Z,23.49
2018-10-16T14:36:12.878Z,23.44
2018-10-16T14:37:22.865Z,23.33
2018-10-16T14:38:32.822Z,23.25
2018-10-16T14:39:42.799Z,23.2
2018-10-16T14:40:52.509Z,23.06
2018-10-16T14:42:02.484Z,22.99
2018-10-16T14:43:12.215Z,22.99
2018-10-16T14:44:21.913Z,22.89
2018-10-16T14:45:31.873Z,22.78
2018-10-16T14:46:41.840Z,22.7
2018-10-16T14:47:51.926Z,22.78
2018-10-16T14:49:02.054Z,22.78
2018-10-16T14:50:12.219Z,22.84
2018-10-16T14:51:21.980Z,22.89
2018-10-16T14:52:31.931Z,22.93
2018-10-16T14:53:41.898Z,23.04
2018-10-16T14:54:51.873Z,23.04
2018-10-16T14:56:01.922Z,22.83
2018-10-16T14:57:12.051Z,22.81
2018-10-16T14:58:21.759Z,22.84
2018-10-16T14:59:31.747Z,22.88
2018-10-16T15:00:41.730Z,22.88
2018-10-16T15:01:51.698Z,23.01
2018-10-16T15:03:01.476Z,23.08
2018-10-16T15:04:11.601Z,23.06
2018-10-16T15:05:21.860Z,22.95
2018-10-16T15:06:31.827Z,22.84